Belmore, OH (45815)

2:19 AM EDT on August 20, 2014 (GMT -0400)
APRSWXNET Leipsic OH US | Change Station
CLOSE
Current Station
Personal Weather Station
Location: Leipsic, OH
Elevation: 784 ft
Nearby Weather Stations

Elev 784 ft 41.10 °N, 83.99 °W | Updated 53 minutes ago

Heavy Thunderstorms and Rain
Heavy Thunderstorm Rain Mist
69 °F
Feels Like 69 °F
N
9
Wind Variable Wind from West
Gusts 23.0 mph

Today
High -- | Low -- °F
--% Chance of Precip.
Yesterday
High -- | Low -- °F
Precip. -- in
6:50 AM 8:27 PM
Waning Crescent, 24% visible
Pressure 29.81 in
Visibility 2.0 miles
Clouds Few 3500 ft
Mostly Cloudy 4400 ft
Overcast 7500 ft
Dew Point 67 °F
Humidity 92%
Rainfall 0.01 in
Snow Depth Not available.
UV 0 out of 12
Pollen 7.30 out of 12
Air Quality Not available.
Flu Activity Not available.
SPECI KFDY 200615Z AUTO 22012G19KT 2SM +TSRA BR FEW035 BKN044 OVC075 20/18 A2981 RMK AO2 WSHFT 0558 LTG DSNT S-W RAB02 TSB01 P0017 T02000183

More Conditions Fewer Conditions

Pressure 29.81 in
Visibility 2.0 miles
Clouds Few 3500 ft
Mostly Cloudy 4400 ft
Overcast 7500 ft
Dew Point 67 °F
Humidity 92%
Rainfall 0.01 in
Snow Depth Not available.
UV 0 out of 12
Pollen 7.30 out of 12
Air Quality Not available.
Flu Activity Not available.
SPECI KFDY 200615Z AUTO 22012G19KT 2SM +TSRA BR FEW035 BKN044 OVC075 20/18 A2981 RMK AO2 WSHFT 0558 LTG DSNT S-W RAB02 TSB01 P0017 T02000183

More Conditions Fewer Conditions

10-Day Weather Forecast

Almanac

Astronomy

Aug. 20, 2014 Rise Set
Actual Time 6:50 AM EDT 8:27 PM EDT
Civil Twilight 6:21 AM EDT 8:56 PM EDT
Nautical Twilight 5:45 AM EDT 9:31 PM EDT
Astronomical Twilight 5:08 AM EDT 10:08 PM EDT
Moon 2:28 AM EDT 5:12 PM EDT
Length of Visible Light 14h 35m
Length of Day
13h 36m
Tomorrow will be 2m 30s shorter.
Waning Crescent, 24% of the Moon is Illuminated
Today
Waning Crescent
Aug 25
New
Sep 2
First Quarter
Sep 8
Full
Sep 15
Last Quarter

Today's Extremes

State Highs State Lows

Community

WunderPhotos

Upload Photos

1,745,592 photos uploaded!

Nearby

Snow Depth

Station Depth Elevation
No new snow has been reported.

Earthquake Activity

City Distance Mag. Time & Date
No recent earthquake activity has been reported nearby.
Minimum magnitude displayed is 2.5.

Coastal Water Temperatures

Place Temperature
No Stations Reporting

Nearby Weather Stations